createdAt,value
2022-09-21T00:00:47.524Z,12.91
2022-09-21T00:03:15.549Z,12.87
2022-09-21T00:05:43.527Z,12.80
2022-09-21T00:08:13.845Z,12.77
2022-09-21T00:10:42.837Z,12.81
2022-09-21T00:13:13.392Z,12.77
2022-09-21T00:15:41.812Z,12.78
2022-09-21T00:18:11.320Z,12.80
2022-09-21T00:20:43.489Z,12.77
2022-09-21T00:23:11.653Z,12.76
2022-09-21T00:25:39.324Z,12.89
2022-09-21T00:28:08.297Z,13.00
2022-09-21T00:30:35.909Z,13.09
2022-09-21T00:33:03.496Z,13.04
2022-09-21T00:35:31.199Z,13.04
2022-09-21T00:38:01.969Z,13.03
2022-09-21T00:40:30.100Z,13.00
2022-09-21T00:43:15.561Z,12.95
2022-09-21T00:45:44.112Z,12.87
2022-09-21T00:48:11.937Z,12.81
2022-09-21T00:50:45.360Z,12.82
2022-09-21T00:53:13.044Z,12.76
2022-09-21T00:55:44.285Z,12.74
2022-09-21T00:58:18.046Z,12.75
2022-09-21T01:00:45.649Z,12.68
2022-09-21T01:03:14.371Z,12.63
2022-09-21T01:05:42.004Z,12.57
2022-09-21T01:08:13.000Z,12.56
2022-09-21T01:10:57.020Z,12.58
2022-09-21T01:13:35.130Z,12.53
2022-09-21T01:16:10.112Z,12.48
2022-09-21T01:18:44.883Z,12.49
2022-09-21T01:21:20.046Z,12.41
2022-09-21T01:24:09.858Z,12.37
2022-09-21T01:27:00.360Z,12.33
2022-09-21T01:29:34.059Z,12.28
2022-09-21T01:32:07.951Z,12.33
2022-09-21T01:34:40.400Z,12.39
2022-09-21T01:37:14.249Z,12.39
2022-09-21T01:39:45.883Z,12.44
2022-09-21T01:42:15.831Z,12.40
2022-09-21T01:44:47.145Z,12.40
2022-09-21T01:47:17.299Z,12.40
2022-09-21T01:49:49.797Z,12.40
2022-09-21T01:52:22.326Z,12.44
2022-09-21T01:54:54.606Z,12.41
2022-09-21T01:57:35.772Z,12.40
2022-09-21T02:00:06.760Z,12.26
2022-09-21T02:02:51.022Z,12.26
2022-09-21T02:05:21.054Z,12.21
2022-09-21T02:07:49.782Z,12.19
2022-09-21T02:10:21.786Z,12.14
2022-09-21T02:12:51.731Z,12.11
2022-09-21T02:15:25.818Z,12.05
2022-09-21T02:18:02.007Z,12.01
2022-09-21T02:20:33.429Z,12.10
2022-09-21T02:23:08.255Z,12.26
2022-09-21T02:25:47.361Z,12.30
2022-09-21T02:28:27.568Z,12.36
2022-09-21T02:31:02.354Z,12.30
2022-09-21T02:33:33.435Z,12.29
2022-09-21T02:36:08.619Z,12.37
2022-09-21T02:38:40.284Z,12.26
2022-09-21T02:41:16.897Z,12.14
2022-09-21T02:43:49.670Z,12.07
2022-09-21T02:46:25.280Z,12.05
2022-09-21T02:48:58.705Z,12.05
2022-09-21T02:51:32.209Z,12.11
2022-09-21T02:54:03.294Z,12.16
2022-09-21T02:56:32.863Z,12.17
2022-09-21T02:59:04.326Z,12.14
2022-09-21T03:01:34.947Z,12.14
2022-09-21T03:04:03.428Z,12.12
2022-09-21T03:06:31.370Z,12.09
2022-09-21T03:08:59.043Z,12.05
2022-09-21T03:11:27.072Z,12.07
2022-09-21T03:13:54.799Z,12.07
2022-09-21T03:16:22.806Z,12.14
2022-09-21T03:18:52.069Z,12.10
2022-09-21T03:21:19.658Z,12.04
2022-09-21T03:23:47.222Z,12.07
2022-09-21T03:26:14.844Z,12.09
2022-09-21T03:28:42.440Z,12.15
2022-09-21T03:31:10.107Z,12.14
2022-09-21T03:33:37.736Z,12.19
2022-09-21T03:36:07.042Z,12.17
2022-09-21T03:38:34.820Z,12.14
2022-09-21T03:41:02.452Z,12.11
2022-09-21T03:43:30.502Z,12.10
2022-09-21T03:45:58.263Z,12.10
2022-09-21T03:48:26.005Z,12.10
2022-09-21T03:50:53.912Z,12.12
2022-09-21T03:53:23.037Z,12.09
2022-09-21T03:55:50.903Z,12.00
2022-09-21T03:58:18.464Z,11.98
2022-09-21T04:00:46.281Z,12.05
2022-09-21T04:03:13.872Z,12.00
2022-09-21T04:05:41.508Z,11.92
2022-09-21T04:08:10.005Z,11.93
2022-09-21T04:10:42.136Z,12.06
2022-09-21T04:13:09.863Z,12.09
2022-09-21T04:15:37.501Z,12.07
2022-09-21T04:18:05.369Z,12.05
2022-09-21T04:20:33.175Z,12.13
2022-09-21T04:23:00.819Z,12.17
2022-09-21T04:25:30.859Z,12.23
2022-09-21T04:27:59.796Z,12.22
2022-09-21T04:30:27.424Z,12.16
2022-09-21T04:32:55.045Z,12.08
2022-09-21T04:35:22.649Z,12.00
2022-09-21T04:37:50.180Z,12.02
2022-09-21T04:40:17.947Z,12.01
2022-09-21T04:42:45.586Z,12.02
2022-09-21T04:45:14.499Z,11.94
2022-09-21T04:47:42.127Z,11.89
2022-09-21T04:50:10.626Z,11.86
2022-09-21T04:52:38.279Z,11.82
2022-09-21T04:55:06.827Z,11.82
2022-09-21T04:57:35.731Z,11.86
2022-09-21T05:00:04.154Z,11.85
2022-09-21T05:02:33.288Z,11.94
2022-09-21T05:05:00.959Z,11.96
2022-09-21T05:07:28.547Z,11.94
2022-09-21T05:10:04.222Z,11.96
2022-09-21T05:12:32.267Z,11.96
2022-09-21T05:14:59.914Z,11.90
2022-09-21T05:17:27.612Z,11.86
2022-09-21T05:19:56.583Z,11.91
2022-09-21T05:22:24.184Z,11.93
2022-09-21T05:24:51.780Z,11.98
2022-09-21T05:27:19.340Z,11.89
2022-09-21T05:29:47.520Z,11.91
2022-09-21T05:32:21.811Z,11.96
2022-09-21T05:35:01.626Z,11.91
2022-09-21T05:37:46.572Z,11.85
2022-09-21T05:40:15.426Z,11.84
2022-09-21T05:42:43.825Z,11.86
2022-09-21T05:45:15.519Z,11.84
2022-09-21T05:47:55.098Z,11.91
2022-09-21T05:50:49.844Z,11.89
2022-09-21T05:53:30.952Z,11.96
2022-09-21T05:56:00.755Z,11.97
2022-09-21T05:58:38.119Z,11.97
2022-09-21T06:01:21.806Z,11.92
2022-09-21T06:03:50.168Z,11.93
2022-09-21T06:06:19.975Z,11.95
2022-09-21T06:08:47.608Z,12.00
2022-09-21T06:11:15.733Z,12.09
2022-09-21T06:13:43.728Z,12.14
2022-09-21T06:16:11.750Z,12.39
2022-09-21T06:18:40.181Z,12.41
2022-09-21T06:21:09.094Z,12.40
2022-09-21T06:23:38.665Z,12.46
2022-09-21T06:26:06.563Z,12.50
2022-09-21T06:28:34.311Z,12.52
2022-09-21T06:31:01.995Z,12.58
2022-09-21T06:33:29.697Z,12.66
2022-09-21T06:35:58.836Z,12.66
2022-09-21T06:38:27.984Z,12.74
2022-09-21T06:40:56.986Z,12.78
2022-09-21T06:43:24.588Z,12.84
2022-09-21T06:45:56.121Z,12.89
2022-09-21T06:48:24.196Z,12.92
2022-09-21T06:50:51.920Z,12.92
2022-09-21T06:53:19.926Z,12.94
2022-09-21T06:55:47.526Z,12.99
2022-09-21T06:58:16.498Z,13.06
2022-09-21T07:00:44.154Z,13.09
2022-09-21T07:03:12.995Z,13.12
2022-09-21T07:05:40.878Z,13.16
2022-09-21T07:10:04.887Z,13.18
2022-09-21T07:10:59.278Z,13.19
2022-09-21T07:13:28.645Z,13.22
2022-09-21T07:15:56.673Z,13.24
2022-09-21T07:18:24.558Z,13.21
2022-09-21T07:20:52.341Z,13.30
2022-09-21T07:23:22.235Z,13.37
2022-09-21T07:25:52.319Z,13.44
2022-09-21T07:28:20.618Z,13.48
2022-09-21T07:30:49.800Z,13.49
2022-09-21T07:33:17.583Z,13.56
2022-09-21T07:35:52.194Z,13.57
2022-09-21T07:38:20.630Z,13.62
2022-09-21T07:40:48.743Z,13.67
2022-09-21T07:43:17.911Z,13.71
2022-09-21T07:45:55.765Z,13.77
2022-09-21T07:48:23.642Z,13.78
2022-09-21T07:50:51.230Z,13.83
2022-09-21T07:53:18.840Z,13.84
2022-09-21T07:55:46.392Z,13.90
2022-09-21T07:58:31.764Z,13.93
2022-09-21T08:01:01.186Z,13.96
2022-09-21T08:03:28.764Z,14.02
2022-09-21T08:05:56.453Z,14.08
2022-09-21T08:08:24.038Z,14.11
2022-09-21T08:10:52.962Z,14.18
2022-09-21T08:13:20.575Z,14.29
2022-09-21T08:15:50.218Z,14.43
2022-09-21T08:18:19.528Z,15.82
2022-09-21T08:20:55.292Z,18.24
2022-09-21T08:23:22.896Z,19.59
2022-09-21T08:25:51.263Z,21.26
2022-09-21T08:28:19.479Z,24.19
2022-09-21T08:30:47.135Z,25.39
2022-09-21T08:33:14.775Z,26.13
2022-09-21T08:35:43.801Z,26.68
2022-09-21T08:38:11.383Z,27.75
2022-09-21T08:40:41.810Z,29.41
2022-09-21T08:43:13.563Z,31.06
2022-09-21T08:45:44.600Z,32.08
2022-09-21T08:48:22.895Z,33.81
2022-09-21T08:50:58.594Z,35.72
2022-09-21T08:53:29.296Z,37.31
2022-09-21T08:55:57.486Z,38.82
2022-09-21T08:58:26.595Z,40.23
2022-09-21T09:01:08.995Z,40.68
2022-09-21T09:03:54.640Z,40.64
2022-09-21T09:06:33.259Z,39.61
2022-09-21T09:09:15.602Z,38.36
2022-09-21T09:11:56.293Z,37.63
2022-09-21T09:14:47.834Z,34.48
2022-09-21T09:17:32.623Z,30.60
2022-09-21T09:20:04.396Z,27.51
2022-09-21T09:22:37.881Z,25.07
2022-09-21T09:25:13.463Z,23.33
2022-09-21T09:27:45.492Z,21.90
2022-09-21T09:30:18.446Z,21.09
2022-09-21T09:32:53.443Z,20.58
2022-09-21T09:35:27.805Z,19.99
2022-09-21T09:38:00.924Z,19.50
2022-09-21T09:40:45.501Z,19.24
2022-09-21T09:43:23.806Z,19.10
2022-09-21T09:46:02.798Z,19.15
2022-09-21T09:48:43.012Z,19.08
2022-09-21T09:51:13.263Z,18.77
2022-09-21T09:53:42.247Z,18.47
2022-09-21T09:56:11.556Z,18.26
2022-09-21T09:58:46.332Z,18.12
2022-09-21T10:01:39.394Z,17.92
2022-09-21T10:04:09.072Z,17.74
2022-09-21T10:06:39.342Z,17.61
2022-09-21T10:09:24.953Z,17.56
2022-09-21T10:11:54.069Z,17.69
2022-09-21T10:14:24.826Z,17.73
2022-09-21T10:16:54.434Z,17.70
2022-09-21T10:19:24.410Z,17.62
2022-09-21T10:21:58.170Z,17.57
2022-09-21T10:24:30.473Z,17.51
2022-09-21T10:27:05.541Z,17.73
2022-09-21T10:29:41.016Z,17.75
2022-09-21T10:32:21.722Z,17.73
2022-09-21T10:35:15.467Z,17.64
2022-09-21T10:37:46.325Z,17.54
2022-09-21T10:40:30.563Z,17.56
2022-09-21T10:43:00.470Z,18.00
2022-09-21T10:45:30.148Z,18.96
2022-09-21T10:47:59.815Z,19.29
2022-09-21T10:50:30.384Z,19.18
2022-09-21T10:53:01.966Z,18.89
2022-09-21T10:55:33.021Z,19.12
2022-09-21T10:58:01.491Z,20.81
2022-09-21T11:00:35.504Z,20.84
2022-09-21T11:03:28.567Z,20.42
2022-09-21T11:05:58.754Z,19.92
2022-09-21T11:08:33.175Z,19.89
2022-09-21T11:11:18.986Z,19.77
2022-09-21T11:13:54.298Z,19.54
2022-09-21T11:16:30.363Z,19.35
2022-09-21T11:19:04.729Z,19.96
2022-09-21T11:21:41.691Z,21.48
2022-09-21T11:24:21.563Z,23.45
2022-09-21T11:26:55.552Z,24.67
2022-09-21T11:29:28.764Z,24.60
2022-09-21T11:32:07.041Z,24.22
2022-09-21T11:35:09.319Z,23.71
2022-09-21T11:37:52.382Z,23.05
2022-09-21T11:40:33.047Z,22.69
2022-09-21T11:43:15.923Z,22.40
2022-09-21T11:46:06.798Z,22.06
2022-09-21T11:48:53.348Z,21.63
2022-09-21T11:51:40.979Z,21.28
2022-09-21T11:54:32.147Z,21.22
2022-09-21T11:57:08.212Z,21.03
2022-09-21T11:59:49.376Z,20.81
2022-09-21T12:02:37.127Z,20.58
2022-09-21T12:05:12.908Z,20.41
2022-09-21T12:07:58.217Z,20.31
2022-09-21T12:10:39.472Z,20.25
2022-09-21T12:13:15.992Z,20.45
2022-09-21T12:15:50.905Z,20.42
2022-09-21T12:18:27.369Z,20.19
2022-09-21T12:21:02.957Z,19.84
2022-09-21T12:23:39.452Z,19.60
2022-09-21T12:26:08.598Z,19.55
2022-09-21T12:28:40.595Z,19.56
2022-09-21T12:31:15.543Z,19.66
2022-09-21T12:33:50.087Z,19.90
2022-09-21T12:36:21.936Z,19.86
2022-09-21T12:38:54.525Z,19.79
2022-09-21T12:41:34.324Z,19.74
2022-09-21T12:44:13.397Z,19.68
2022-09-21T12:46:51.149Z,19.58
2022-09-21T12:49:24.721Z,19.56
2022-09-21T12:51:57.075Z,19.45
2022-09-21T12:54:38.009Z,19.26
2022-09-21T12:57:29.810Z,19.02
2022-09-21T13:00:06.149Z,18.91
2022-09-21T13:05:16.840Z,18.91
2022-09-21T13:08:09.353Z,19.01
2022-09-21T13:10:44.518Z,19.05
2022-09-21T13:13:28.285Z,19.05
2022-09-21T13:15:59.064Z,19.03
2022-09-21T13:18:35.797Z,18.99
2022-09-21T13:21:17.467Z,19.13
2022-09-21T13:23:52.195Z,19.17
2022-09-21T13:26:32.599Z,19.07
2022-09-21T13:29:07.688Z,18.93
2022-09-21T13:31:57.384Z,18.78
2022-09-21T13:34:35.089Z,18.64
2022-09-21T13:37:27.395Z,18.46
2022-09-21T13:40:40.131Z,18.40
2022-09-21T13:43:31.792Z,18.51
2022-09-21T13:45:59.573Z,18.61
2022-09-21T13:48:30.308Z,18.72
2022-09-21T13:51:01.718Z,18.91
2022-09-21T13:53:35.762Z,19.04
2022-09-21T13:56:09.770Z,19.00
2022-09-21T13:58:43.992Z,19.10
2022-09-21T14:01:42.365Z,19.17
2022-09-21T14:04:19.318Z,19.23
2022-09-21T14:06:54.158Z,19.23
2022-09-21T14:09:25.870Z,19.20
2022-09-21T14:12:00.256Z,19.12
2022-09-21T14:14:31.082Z,19.09
2022-09-21T14:17:00.217Z,19.05
2022-09-21T14:20:05.177Z,19.03
2022-09-21T14:22:42.063Z,19.04
2022-09-21T14:25:48.807Z,19.01
2022-09-21T14:28:18.389Z,19.00
2022-09-21T14:30:55.329Z,19.06
2022-09-21T14:33:30.043Z,19.02
2022-09-21T14:35:58.985Z,18.95
2022-09-21T14:38:30.623Z,18.96
2022-09-21T14:41:02.241Z,18.96
2022-09-21T14:43:35.125Z,18.88
2022-09-21T14:46:16.681Z,18.82
2022-09-21T14:48:56.571Z,18.78
2022-09-21T14:51:36.439Z,18.73
2022-09-21T14:54:34.475Z,18.71
2022-09-21T14:57:34.850Z,18.62
2022-09-21T15:00:20.946Z,18.53
2022-09-21T15:02:51.972Z,18.46
2022-09-21T15:05:31.072Z,18.48
2022-09-21T15:08:38.360Z,18.40
2022-09-21T15:11:15.953Z,18.41
2022-09-21T15:13:53.478Z,18.48
2022-09-21T15:16:37.903Z,18.38
2022-09-21T15:19:22.881Z,18.35
2022-09-21T15:21:52.475Z,18.29
2022-09-21T15:24:29.517Z,18.28
2022-09-21T15:27:08.210Z,18.26
2022-09-21T15:29:36.963Z,18.20
2022-09-21T15:32:06.314Z,18.18
2022-09-21T15:34:34.031Z,18.17
2022-09-21T15:37:13.257Z,18.18
2022-09-21T15:39:41.341Z,18.15
2022-09-21T15:42:22.702Z,18.14
2022-09-21T15:44:55.218Z,18.19
2022-09-21T15:47:25.941Z,18.22
2022-09-21T15:49:56.144Z,18.18
2022-09-21T15:52:33.842Z,18.21
2022-09-21T15:55:09.189Z,18.08
2022-09-21T15:57:41.282Z,18.05
2022-09-21T16:00:21.398Z,17.97
2022-09-21T16:03:07.465Z,17.96
2022-09-21T16:05:46.965Z,18.00
2022-09-21T16:08:31.222Z,17.94
2022-09-21T16:11:23.152Z,17.90
2022-09-21T16:14:17.311Z,17.88
2022-09-21T16:17:08.072Z,17.87
2022-09-21T16:19:41.968Z,17.80
2022-09-21T16:22:12.472Z,17.76
2022-09-21T16:24:46.077Z,17.76
2022-09-21T16:27:18.262Z,17.76
2022-09-21T16:29:49.772Z,17.70
2022-09-21T16:32:27.368Z,17.70
2022-09-21T16:35:19.607Z,17.69
2022-09-21T16:37:47.231Z,17.65
2022-09-21T16:40:15.123Z,17.65
2022-09-21T16:42:43.130Z,17.62
2022-09-21T16:45:23.594Z,17.63
2022-09-21T16:47:54.084Z,17.59
2022-09-21T16:50:21.695Z,17.89
2022-09-21T16:52:52.473Z,17.66
2022-09-21T16:55:20.095Z,17.53
2022-09-21T16:57:49.911Z,17.48
2022-09-21T17:00:22.057Z,17.46
2022-09-21T17:02:50.278Z,17.41
2022-09-21T17:05:19.264Z,17.35
2022-09-21T17:07:53.015Z,17.30
2022-09-21T17:10:24.164Z,17.26
2022-09-21T17:12:53.944Z,17.24
2022-09-21T17:15:23.800Z,17.32
2022-09-21T17:17:51.422Z,17.23
2022-09-21T17:20:30.907Z,17.18
2022-09-21T17:22:58.666Z,17.12
2022-09-21T17:25:27.648Z,17.09
2022-09-21T17:27:57.964Z,17.04
2022-09-21T17:30:28.192Z,17.02
2022-09-21T17:32:58.277Z,16.98
2022-09-21T17:35:31.877Z,16.98
2022-09-21T17:38:00.298Z,16.96
2022-09-21T17:40:29.781Z,16.90
2022-09-21T17:43:11.919Z,16.90
2022-09-21T17:45:46.840Z,16.87
2022-09-21T17:48:19.994Z,16.84
2022-09-21T17:50:48.457Z,16.80
2022-09-21T17:53:33.878Z,16.76
2022-09-21T17:56:25.661Z,16.77
2022-09-21T17:58:59.134Z,16.73
2022-09-21T18:01:33.709Z,16.72
2022-09-21T18:04:02.019Z,16.70
2022-09-21T18:06:31.420Z,16.68
2022-09-21T18:08:59.643Z,16.67
2022-09-21T18:11:56.506Z,16.66
2022-09-21T18:14:35.498Z,16.64
2022-09-21T18:17:20.735Z,16.60
2022-09-21T18:20:03.636Z,16.59
2022-09-21T18:22:40.490Z,16.54
2022-09-21T18:25:16.350Z,16.53
2022-09-21T18:27:47.999Z,16.53
2022-09-21T18:30:17.659Z,16.53
2022-09-21T18:32:56.975Z,16.51
2022-09-21T18:35:38.633Z,16.47
2022-09-21T18:38:18.503Z,16.47
2022-09-21T18:41:08.660Z,16.44
2022-09-21T18:43:46.245Z,16.41
2022-09-21T18:46:17.914Z,16.37
2022-09-21T18:48:59.987Z,16.32
2022-09-21T18:51:35.225Z,16.23
2022-09-21T18:54:03.475Z,16.22
2022-09-21T18:56:35.263Z,16.24
2022-09-21T18:59:03.757Z,16.24
2022-09-21T19:01:33.894Z,16.22
2022-09-21T19:04:04.148Z,16.17
2022-09-21T19:06:44.554Z,16.10
2022-09-21T19:09:35.455Z,15.99
2022-09-21T19:12:14.002Z,15.94
2022-09-21T19:14:51.039Z,15.95
2022-09-21T19:17:32.160Z,15.93
2022-09-21T19:20:13.210Z,15.90
2022-09-21T19:22:48.222Z,15.80
2022-09-21T19:25:24.758Z,15.78
2022-09-21T19:27:58.267Z,15.79
2022-09-21T19:30:26.752Z,15.73
2022-09-21T19:32:57.986Z,15.68
2022-09-21T19:35:28.928Z,15.69
2022-09-21T19:37:58.388Z,15.65
2022-09-21T19:40:28.195Z,15.66
2022-09-21T19:43:14.192Z,15.58
2022-09-21T19:45:56.157Z,15.55
2022-09-21T19:48:28.481Z,15.43
2022-09-21T19:50:58.839Z,15.37
2022-09-21T19:53:45.100Z,15.34
2022-09-21T19:56:35.125Z,15.37
2022-09-21T19:59:20.940Z,15.37
2022-09-21T20:01:54.678Z,15.30
2022-09-21T20:04:28.247Z,15.27
2022-09-21T20:07:03.111Z,15.29
2022-09-21T20:09:36.901Z,15.27
2022-09-21T20:12:15.105Z,15.24
2022-09-21T20:14:50.353Z,15.25
2022-09-21T20:17:22.730Z,15.22
2022-09-21T20:19:56.955Z,15.19
2022-09-21T20:22:34.644Z,15.11
2022-09-21T20:25:07.974Z,15.03
2022-09-21T20:27:39.851Z,14.96
2022-09-21T20:30:10.017Z,14.93
2022-09-21T20:32:40.289Z,14.85
2022-09-21T20:35:15.941Z,14.82
2022-09-21T20:37:45.293Z,14.80
2022-09-21T20:40:13.868Z,14.77
2022-09-21T20:42:42.330Z,14.81
2022-09-21T20:45:11.731Z,14.75
2022-09-21T20:47:39.750Z,14.69
2022-09-21T20:50:12.109Z,14.66
2022-09-21T20:52:42.104Z,14.55
2022-09-21T20:55:13.484Z,14.47
2022-09-21T20:57:41.304Z,14.44
2022-09-21T21:00:11.271Z,14.36
2022-09-21T21:02:38.966Z,14.35
2022-09-21T21:05:08.238Z,14.38
2022-09-21T21:07:36.377Z,14.36
2022-09-21T21:10:04.951Z,14.36
2022-09-21T21:12:33.969Z,14.28
2022-09-21T21:15:01.581Z,14.29
2022-09-21T21:17:29.204Z,14.22
2022-09-21T21:19:56.998Z,14.18
2022-09-21T21:22:24.594Z,14.15
2022-09-21T21:24:52.586Z,14.17
2022-09-21T21:27:22.206Z,14.11
2022-09-21T21:29:52.908Z,14.05
2022-09-21T21:32:23.685Z,14.00
2022-09-21T21:34:51.987Z,13.97
2022-09-21T21:37:20.967Z,13.98
2022-09-21T21:39:48.793Z,13.97
2022-09-21T21:42:16.386Z,13.97
2022-09-21T21:44:44.031Z,13.95
2022-09-21T21:47:38.156Z,13.92
2022-09-21T21:50:00.745Z,13.79
2022-09-21T21:52:28.310Z,13.77
2022-09-21T21:54:55.954Z,13.67
2022-09-21T21:57:23.608Z,13.70
2022-09-21T21:59:51.203Z,13.77
2022-09-21T22:02:20.293Z,13.70
2022-09-21T22:04:47.924Z,13.71
2022-09-21T22:07:15.510Z,13.72
2022-09-21T22:09:43.114Z,13.68
2022-09-21T22:12:11.144Z,13.67
2022-09-21T22:14:38.747Z,13.69
2022-09-21T22:17:06.306Z,13.69
2022-09-21T22:19:35.347Z,13.73
2022-09-21T22:22:02.962Z,13.69
2022-09-21T22:24:30.656Z,13.72
2022-09-21T22:26:58.310Z,13.71
2022-09-21T22:29:25.889Z,13.69
2022-09-21T22:31:55.109Z,13.62
2022-09-21T22:34:22.940Z,13.65
2022-09-21T22:36:51.879Z,13.59
2022-09-21T22:39:19.487Z,13.51
2022-09-21T22:41:47.161Z,13.47
2022-09-21T22:44:14.750Z,13.38
2022-09-21T22:46:42.550Z,13.34
2022-09-21T22:49:10.150Z,13.31
2022-09-21T22:51:38.119Z,13.30
2022-09-21T22:54:07.374Z,13.26
2022-09-21T22:56:35.805Z,13.27
2022-09-21T22:59:05.031Z,13.34
2022-09-21T23:01:35.121Z,13.32
2022-09-21T23:04:04.693Z,13.26
2022-09-21T23:06:35.454Z,13.29
2022-09-21T23:09:06.646Z,13.23
2022-09-21T23:11:37.320Z,13.22
2022-09-21T23:14:05.306Z,13.18
2022-09-21T23:16:33.029Z,13.15
2022-09-21T23:19:00.953Z,13.22
2022-09-21T23:21:30.412Z,13.24
2022-09-21T23:24:00.501Z,13.24
2022-09-21T23:26:30.310Z,13.21
2022-09-21T23:29:01.507Z,13.18
2022-09-21T23:31:29.958Z,13.17
2022-09-21T23:34:00.013Z,13.21
2022-09-21T23:36:31.487Z,13.16
2022-09-21T23:38:59.571Z,13.17
2022-09-21T23:41:29.218Z,13.22
2022-09-21T23:43:57.984Z,13.26
2022-09-21T23:46:29.624Z,13.24
2022-09-21T23:48:58.171Z,13.19
2022-09-21T23:51:26.586Z,13.16
2022-09-21T23:53:54.677Z,13.05
2022-09-21T23:56:23.962Z,12.96
2022-09-21T23:58:52.270Z,12.89
